Time;durP1;ratioP1;P1;durP2;ratioP2;P2;SDS_P1;SDS_P2;PMS_P1;PMS_P2;Temp;Humidity;BMP_temperature;BMP_pressure;BME280_temperature;BME280_humidity;BME280_pressure;Samples;Min_cycle;Max_cycle;Signal;HPM_P1;HPM_P2
2020/12/11 00:01:37;;;;;;;52.13;17.67;;;1.90;92.80;;;;;;5030202;28;20645;-75
2020/12/11 00:04:03;;;;;;;44.30;16.43;;;1.90;92.80;;;;;;5030040;28;20037;-75
2020/12/11 00:06:29;;;;;;;47.17;17.20;;;1.90;92.90;;;;;;5034174;28;20045;-75
2020/12/11 00:08:55;;;;;;;46.80;17.77;;;1.90;92.80;;;;;;5033202;28;20041;-75
2020/12/11 00:11:30;;;;;;;47.27;16.47;;;1.90;92.90;;;;;;5034219;28;20060;-75
2020/12/11 00:13:57;;;;;;;45.33;16.53;;;1.80;93.00;;;;;;5033532;28;20049;-75
2020/12/11 00:16:23;;;;;;;44.90;16.80;;;1.90;93.10;;;;;;5033877;28;20045;-74
2020/12/11 00:18:49;;;;;;;43.73;16.17;;;1.90;93.30;;;;;;5034369;28;20119;-75
2020/12/11 00:21:15;;;;;;;44.23;15.67;;;2.00;93.10;;;;;;5033104;28;20116;-75
2020/12/11 00:23:40;;;;;;;43.33;15.73;;;2.00;93.10;;;;;;5031996;28;20046;-75
2020/12/11 00:26:06;;;;;;;41.33;15.13;;;2.00;93.00;;;;;;5034197;28;20034;-75
2020/12/11 00:28:32;;;;;;;44.07;16.60;;;2.00;92.90;;;;;;5033790;28;20040;-74
2020/12/11 00:30:58;;;;;;;49.03;16.80;;;2.00;92.90;;;;;;5032828;28;20049;-75
2020/12/11 00:33:25;;;;;;;45.30;14.20;;;2.00;92.90;;;;;;5033425;28;20037;-75
2020/12/11 00:35:51;;;;;;;47.47;16.70;;;2.00;92.80;;;;;;5033394;28;20041;-75
2020/12/11 00:38:18;;;;;;;44.53;17.20;;;1.90;93.00;;;;;;5034020;28;20079;-75
2020/12/11 00:40:44;;;;;;;46.93;16.40;;;1.90;92.90;;;;;;5033653;28;20040;-75
2020/12/11 00:43:10;;;;;;;39.33;14.53;;;1.90;92.90;;;;;;5065392;28;20471;-75
2020/12/11 00:45:35;;;;;;;45.70;16.20;;;1.90;93.00;;;;;;5016027;28;20091;-75
2020/12/11 00:48:01;;;;;;;50.33;16.73;;;1.80;93.00;;;;;;5032087;28;20037;-75
2020/12/11 00:50:27;;;;;;;44.40;16.27;;;1.80;93.00;;;;;;5032492;28;20521;-75
2020/12/11 00:52:53;;;;;;;46.00;16.37;;;1.80;93.00;;;;;;5031249;28;20038;-73
2020/12/11 00:55:21;;;;;;;48.17;16.50;;;1.90;93.20;;;;;;5033584;28;20041;-75
2020/12/11 00:57:49;;;;;;;50.13;17.23;;;1.80;93.10;;;;;;5033513;28;20040;-75
2020/12/11 01:00:17;;;;;;;49.60;16.17;;;1.90;93.00;;;;;;5033196;28;20034;-75
2020/12/11 01:02:43;;;;;;;52.77;18.37;;;1.90;93.00;;;;;;5033274;28;20029;-75
2020/12/11 01:05:08;;;;;;;48.63;16.90;;;1.80;93.10;;;;;;5031781;28;20026;-75
2020/12/11 01:07:34;;;;;;;56.17;17.00;;;1.80;93.10;;;;;;5033477;28;20087;-75
2020/12/11 01:10:00;;;;;;;52.60;16.60;;;1.80;93.10;;;;;;5033412;28;20406;-75
2020/12/11 01:12:26;;;;;;;64.57;19.83;;;1.80;93.10;;;;;;5032390;28;20045;-75
2020/12/11 01:14:52;;;;;;;55.13;19.20;;;1.90;93.10;;;;;;5031999;28;20061;-75
2020/12/11 01:17:17;;;;;;;61.47;19.27;;;1.90;93.20;;;;;;5031956;28;20088;-75
2020/12/11 01:19:43;;;;;;;60.67;20.40;;;1.90;93.20;;;;;;5033242;28;20091;-75
2020/12/11 01:22:10;;;;;;;57.07;20.07;;;1.90;93.30;;;;;;5032473;28;20113;-75
2020/12/11 01:24:36;;;;;;;53.70;18.10;;;1.90;93.20;;;;;;5031592;28;20042;-75
2020/12/11 01:27:02;;;;;;;58.07;19.43;;;1.90;93.30;;;;;;5033087;28;20047;-75
2020/12/11 01:29:27;;;;;;;60.83;20.87;;;1.90;93.20;;;;;;5032765;28;20033;-75
2020/12/11 01:31:59;;;;;;;52.23;19.27;;;1.90;93.30;;;;;;5032366;28;20477;-75
2020/12/11 01:34:26;;;;;;;55.80;16.90;;;1.90;93.30;;;;;;5033121;28;20047;-75
2020/12/11 01:36:52;;;;;;;51.23;18.07;;;1.90;93.20;;;;;;5033074;28;20037;-76
2020/12/11 01:39:17;;;;;;;63.07;19.53;;;1.90;93.20;;;;;;5032973;28;20124;-76
2020/12/11 01:41:43;;;;;;;53.07;15.87;;;1.90;93.20;;;;;;5031927;28;20588;-75
2020/12/11 01:44:10;;;;;;;65.33;20.30;;;1.90;93.20;;;;;;5032684;28;20048;-76
2020/12/11 01:46:39;;;;;;;60.03;19.37;;;1.80;93.20;;;;;;5031439;28;20052;-76
2020/12/11 01:49:06;;;;;;;55.27;18.17;;;1.80;93.20;;;;;;5032380;28;20605;-76
2020/12/11 01:51:33;;;;;;;57.33;18.30;;;1.80;93.20;;;;;;5032562;28;20513;-76
2020/12/11 01:53:59;;;;;;;46.50;16.10;;;1.80;93.20;;;;;;5030752;28;20044;-77
2020/12/11 01:56:29;;;;;;;53.20;18.07;;;1.80;93.30;;;;;;5031188;28;20045;-76
2020/12/11 01:59:02;;;;;;;62.07;20.07;;;1.80;93.30;;;;;;5032193;28;20414;-76
2020/12/11 02:01:32;;;;;;;58.63;19.97;;;1.80;93.30;;;;;;5032413;28;20037;-76
2020/12/11 02:03:57;;;;;;;53.77;17.87;;;1.80;93.30;;;;;;5031785;28;20033;-75
2020/12/11 02:06:24;;;;;;;50.77;16.80;;;1.80;93.40;;;;;;5032241;28;20460;-76
2020/12/11 02:08:55;;;;;;;51.53;16.77;;;1.80;93.40;;;;;;5032331;28;20037;-76
2020/12/11 02:11:21;;;;;;;55.43;19.00;;;1.80;93.40;;;;;;5031986;28;20075;-76
2020/12/11 02:13:47;;;;;;;59.77;19.37;;;1.80;93.30;;;;;;5013884;28;20049;-76
2020/12/11 02:16:13;;;;;;;65.23;21.27;;;1.80;93.20;;;;;;5031555;28;20045;-76
2020/12/11 02:18:40;;;;;;;59.47;21.47;;;1.80;93.30;;;;;;5030854;28;20037;-76
2020/12/11 02:21:06;;;;;;;58.37;20.90;;;1.80;93.30;;;;;;5030712;28;20053;-76
2020/12/11 02:23:32;;;;;;;60.50;20.03;;;1.80;93.40;;;;;;5031176;28;20072;-76
2020/12/11 02:25:58;;;;;;;53.57;18.97;;;1.80;93.40;;;;;;5030665;28;20037;-77
2020/12/11 02:28:33;;;;;;;53.13;18.97;;;1.80;93.30;;;;;;5031413;28;20405;-77
2020/12/11 02:30:59;;;;;;;59.63;19.27;;;1.80;93.30;;;;;;5030707;28;20072;-77
2020/12/11 02:33:25;;;;;;;63.93;21.63;;;1.80;93.40;;;;;;5030891;28;20041;-76
2020/12/11 02:35:51;;;;;;;50.60;16.37;;;1.80;93.40;;;;;;5031789;28;20140;-77
2020/12/11 02:38:16;;;;;;;50.67;16.20;;;1.80;93.40;;;;;;5030517;28;20049;-76
2020/12/11 02:40:49;;;;;;;55.73;17.93;;;1.80;93.30;;;;;;5031376;28;20034;-76
2020/12/11 02:43:16;;;;;;;58.60;19.13;;;1.80;93.30;;;;;;5029794;28;20409;-76
2020/12/11 02:45:46;;;;;;;55.77;18.03;;;1.80;93.30;;;;;;5029716;28;20041;-76
2020/12/11 02:48:12;;;;;;;59.53;19.05;;;1.80;93.40;;;;;;5031599;28;20068;-76
2020/12/11 02:50:38;;;;;;;59.17;19.33;;;1.70;93.30;;;;;;5029904;28;20037;-76
2020/12/11 02:53:05;;;;;;;64.53;20.77;;;1.80;93.40;;;;;;5029709;28;20033;-76
2020/12/11 02:55:31;;;;;;;62.43;20.47;;;1.70;93.40;;;;;;5031446;28;20103;-76
2020/12/11 02:57:56;;;;;;;57.13;17.70;;;1.70;93.60;;;;;;5031015;28;20493;-76
2020/12/11 03:00:22;;;;;;;53.20;16.70;;;1.70;93.50;;;;;;5031370;28;20084;-76
2020/12/11 03:02:48;;;;;;;52.93;18.50;;;1.70;93.40;;;;;;5030184;28;20036;-76
2020/12/11 03:05:14;;;;;;;58.13;18.33;;;1.70;93.40;;;;;;5031178;28;20040;-76
2020/12/11 03:07:39;;;;;;;60.20;19.13;;;1.70;93.40;;;;;;5031283;28;20049;-76
2020/12/11 03:10:05;;;;;;;57.90;18.67;;;1.70;93.40;;;;;;5030865;28;20063;-76
2020/12/11 03:12:31;;;;;;;39.97;13.30;;;1.70;93.40;;;;;;5029351;28;20086;-76
2020/12/11 03:14:57;;;;;;;53.17;18.87;;;1.70;93.50;;;;;;5030771;28;20045;-76
2020/12/11 03:17:22;;;;;;;51.00;17.53;;;1.70;93.40;;;;;;5029502;28;20045;-76
2020/12/11 03:19:48;;;;;;;55.17;17.37;;;1.70;93.50;;;;;;5031104;28;20034;-76
2020/12/11 03:22:14;;;;;;;57.03;18.13;;;1.80;93.50;;;;;;5028939;28;20118;-76
2020/12/11 03:24:39;;;;;;;53.67;18.43;;;1.70;93.50;;;;;;5029779;28;20045;-76
2020/12/11 03:27:05;;;;;;;46.50;16.37;;;1.70;93.50;;;;;;5030879;28;20042;-77
2020/12/11 03:29:31;;;;;;;45.67;15.77;;;1.80;93.50;;;;;;5030706;28;20060;-76
2020/12/11 03:31:56;;;;;;;45.90;16.57;;;1.80;93.40;;;;;;5030269;28;20041;-76
2020/12/11 03:34:22;;;;;;;52.97;17.70;;;1.70;93.40;;;;;;5029119;28;20037;-76
2020/12/11 03:36:48;;;;;;;47.93;16.20;;;1.70;93.40;;;;;;5030695;28;20088;-76
2020/12/11 03:39:14;;;;;;;48.80;17.23;;;1.70;93.40;;;;;;5030410;28;20388;-76
2020/12/11 03:41:40;;;;;;;46.93;16.90;;;1.70;93.50;;;;;;5030042;28;20067;-76
2020/12/11 03:44:06;;;;;;;49.73;15.77;;;1.70;93.50;;;;;;5029597;28;20033;-76
2020/12/11 03:46:32;;;;;;;52.10;17.87;;;1.70;93.50;;;;;;5030141;28;20069;-76
2020/12/11 03:48:59;;;;;;;51.47;16.10;;;1.70;93.40;;;;;;5013050;28;20057;-77
2020/12/11 03:51:25;;;;;;;58.70;19.20;;;1.70;93.50;;;;;;5029403;28;20044;-76
2020/12/11 03:53:51;;;;;;;61.83;19.33;;;1.70;93.50;;;;;;5029768;28;20410;-76
2020/12/11 03:56:18;;;;;;;55.60;18.30;;;1.70;93.50;;;;;;5029294;28;20418;-76
2020/12/11 03:58:45;;;;;;;57.33;18.73;;;1.70;93.50;;;;;;5030480;28;20087;-76
2020/12/11 04:01:14;;;;;;;55.50;18.90;;;1.70;93.50;;;;;;5029435;28;20506;-76
2020/12/11 04:03:41;;;;;;;47.87;17.60;;;1.70;93.50;;;;;;5029626;28;20038;-76
2020/12/11 04:06:14;;;;;;;40.40;13.80;;;1.70;93.50;;;;;;5030733;28;20438;-76
2020/12/11 04:08:41;;;;;;;45.13;16.67;;;1.80;93.60;;;;;;5030582;28;20055;-76
2020/12/11 04:11:12;;;;;;;64.03;19.07;;;1.80;93.50;;;;;;5028881;28;20342;-76
2020/12/11 04:13:37;;;;;;;43.00;13.97;;;1.70;93.40;;;;;;5029877;28;20049;-76
2020/12/11 04:16:04;;;;;;;54.93;16.33;;;1.70;93.50;;;;;;5030008;28;20052;-76
2020/12/11 04:18:30;;;;;;;46.47;16.47;;;1.70;93.50;;;;;;5029253;28;20423;-76
2020/12/11 04:20:59;;;;;;;50.63;17.47;;;1.70;93.50;;;;;;5030163;28;20044;-76
2020/12/11 04:23:26;;;;;;;54.87;19.70;;;1.70;93.50;;;;;;5030047;28;20033;-77
2020/12/11 04:25:53;;;;;;;59.77;18.80;;;1.70;93.50;;;;;;5029051;28;20414;-76
2020/12/11 04:28:19;;;;;;;53.60;19.53;;;1.70;93.60;;;;;;5030028;28;20502;-76
2020/12/11 04:30:45;;;;;;;52.37;17.97;;;1.70;93.60;;;;;;5030436;28;20061;-75
2020/12/11 04:33:11;;;;;;;51.70;18.20;;;1.70;93.60;;;;;;5029359;28;20072;-76
2020/12/11 04:35:37;;;;;;;55.00;18.23;;;1.70;93.60;;;;;;5030136;28;20045;-76
2020/12/11 04:38:03;;;;;;;48.33;14.93;;;1.70;93.60;;;;;;5030345;28;20479;-76
2020/12/11 04:40:29;;;;;;;57.53;18.23;;;1.70;93.50;;;;;;5028676;28;20037;-76
2020/12/11 04:42:55;;;;;;;56.40;17.50;;;1.70;93.50;;;;;;5029732;28;20486;-77
2020/12/11 04:45:23;;;;;;;53.80;18.93;;;1.70;93.70;;;;;;5029710;28;20560;-77
2020/12/11 04:47:49;;;;;;;54.63;18.30;;;1.70;93.60;;;;;;5030428;28;20105;-76
2020/12/11 04:50:17;;;;;;;50.23;15.60;;;1.70;93.70;;;;;;5030332;28;20037;-76
2020/12/11 04:52:44;;;;;;;55.87;18.43;;;1.70;93.60;;;;;;5032598;28;20026;-76
2020/12/11 04:55:16;;;;;;;50.50;18.33;;;1.70;93.60;;;;;;5033483;28;20092;-76
2020/12/11 04:57:50;;;;;;;54.20;17.97;;;1.70;93.60;;;;;;5033376;28;20033;-76
2020/12/11 05:00:17;;;;;;;48.60;17.40;;;1.70;93.60;;;;;;5033675;28;20038;-76
2020/12/11 05:02:44;;;;;;;47.33;16.67;;;1.70;93.60;;;;;;5032681;28;20120;-76
2020/12/11 05:05:12;;;;;;;49.10;17.87;;;1.70;93.60;;;;;;5033477;28;20030;-76
2020/12/11 05:07:38;;;;;;;34.87;10.77;;;1.70;93.60;;;;;;5031604;28;20037;-76
2020/12/11 05:10:06;;;;;;;50.03;16.70;;;1.70;93.60;;;;;;5033658;28;20038;-76
2020/12/11 05:12:33;;;;;;;51.83;16.80;;;1.70;93.60;;;;;;5031451;28;20490;-76
2020/12/11 05:15:00;;;;;;;48.20;15.87;;;1.70;93.60;;;;;;5031461;28;20238;-76
2020/12/11 05:17:31;;;;;;;51.60;17.13;;;1.70;93.60;;;;;;5031854;28;20406;-76
2020/12/11 05:19:58;;;;;;;47.83;17.17;;;1.70;93.60;;;;;;5032927;28;20045;-76
2020/12/11 05:22:25;;;;;;;42.73;15.53;;;1.70;93.90;;;;;;5032384;28;20376;-77
2020/12/11 05:24:56;;;;;;;51.70;17.57;;;1.70;93.60;;;;;;5032027;28;20038;-76
2020/12/11 05:27:45;;;;;;;47.73;15.40;;;1.70;93.60;;;;;;5033267;28;20088;-76
2020/12/11 05:30:14;;;;;;;52.67;17.27;;;1.70;93.70;;;;;;5032768;28;20605;-76
2020/12/11 05:32:49;;;;;;;51.77;20.27;;;1.70;93.60;;;;;;5031050;28;20041;-76
2020/12/11 05:35:18;;;;;;;48.30;16.13;;;1.70;93.60;;;;;;5032682;28;20037;-76
2020/12/11 05:38:10;;;;;;;56.03;18.13;;;1.70;93.70;;;;;;5032472;28;20531;-76
2020/12/11 05:40:38;;;;;;;49.00;18.33;;;1.70;93.70;;;;;;5028722;28;20083;-76
2020/12/11 05:43:09;;;;;;;47.20;15.87;;;1.70;93.70;;;;;;5031036;28;20120;-76
2020/12/11 05:45:36;;;;;;;39.97;14.20;;;1.70;93.70;;;;;;5032454;28;20047;-77
2020/12/11 05:48:04;;;;;;;46.93;15.63;;;1.70;93.60;;;;;;5032952;28;20637;-76
2020/12/11 05:50:30;;;;;;;45.17;16.07;;;1.70;93.60;;;;;;5032521;28;20057;-76
2020/12/11 05:52:56;;;;;;;51.03;16.70;;;1.70;93.50;;;;;;5031020;28;20037;-76
2020/12/11 05:55:23;;;;;;;50.90;19.63;;;1.70;93.60;;;;;;5032727;28;20045;-76
2020/12/11 05:57:55;;;;;;;46.67;17.60;;;1.70;93.60;;;;;;5032257;28;20068;-76
2020/12/11 06:00:20;;;;;;;54.00;17.27;;;1.60;93.60;;;;;;5032620;28;20156;-76
2020/12/11 06:02:48;;;;;;;52.40;17.10;;;1.60;93.70;;;;;;5031184;28;20033;-76
2020/12/11 06:05:15;;;;;;;44.23;14.80;;;1.70;93.80;;;;;;5032574;28;20049;-76
2020/12/11 06:07:46;;;;;;;51.77;18.47;;;1.70;93.70;;;;;;5014275;28;20040;-76
2020/12/11 06:10:13;;;;;;;51.88;19.95;;;1.70;93.70;;;;;;5032511;28;20044;-77
2020/12/11 06:12:40;;;;;;;49.53;17.13;;;1.70;93.70;;;;;;5031500;28;20402;-76
2020/12/11 06:15:21;;;;;;;49.53;17.30;;;1.70;93.70;;;;;;5031886;28;20521;-76
2020/12/11 06:18:23;;;;;;;43.28;15.02;;;1.70;93.70;;;;;;5030306;28;20039;-75
2020/12/11 06:20:53;;;;;;;53.60;19.47;;;1.70;93.70;;;;;;5027711;28;20048;-75
2020/12/11 06:23:24;;;;;;;46.67;16.50;;;1.60;93.70;;;;;;5043126;28;20109;-77
2020/12/11 06:25:54;;;;;;;54.80;18.38;;;1.70;93.80;;;;;;5009413;28;20056;-76
2020/12/11 06:28:35;;;;;;;52.50;19.00;;;1.70;93.70;;;;;;5010763;28;20125;-76
2020/12/11 06:31:02;;;;;;;55.42;19.95;;;1.70;93.80;;;;;;5011589;28;20137;-76
2020/12/11 06:33:33;;;;;;;53.27;19.17;;;1.70;93.80;;;;;;5011051;28;20498;-75
2020/12/11 06:35:59;;;;;;;;;;;1.70;93.70;;;;;;5012416;28;20034;-76
2020/12/11 06:38:40;;;;;;;47.60;15.63;;;1.70;93.70;;;;;;5011673;28;20454;-76
2020/12/11 06:41:06;;;;;;;49.70;15.95;;;1.70;93.70;;;;;;5012335;28;20508;-76
2020/12/11 06:43:45;;;;;;;52.03;17.93;;;1.70;93.70;;;;;;5011022;28;20041;-76
2020/12/11 06:46:18;;;;;;;57.70;18.73;;;1.70;93.70;;;;;;5011993;28;20603;-76
2020/12/11 06:49:14;;;;;;;53.60;16.00;;;1.70;93.70;;;;;;5011512;28;20038;-77
2020/12/11 06:51:46;;;;;;;54.00;17.70;;;1.70;93.80;;;;;;5002305;28;20438;-76
2020/12/11 06:54:12;;;;;;;53.33;18.27;;;1.70;93.70;;;;;;5010450;28;20156;-76
2020/12/11 06:56:43;;;;;;;61.40;18.47;;;1.70;93.70;;;;;;5011192;28;20068;-76
2020/12/11 06:59:29;;;;;;;55.55;19.08;;;1.70;93.70;;;;;;5011798;28;20133;-76
2020/12/11 07:02:01;;;;;;;50.23;14.70;;;1.70;93.80;;;;;;5010856;28;20254;-76
2020/12/11 07:04:37;;;;;;;51.97;17.37;;;1.70;93.80;;;;;;5011587;28;20042;-76
2020/12/11 07:07:03;;;;;;;52.63;15.03;;;1.70;93.80;;;;;;5011267;28;20049;-76
2020/12/11 07:09:29;;;;;;;54.43;17.00;;;1.70;93.70;;;;;;5010307;28;20034;-76
2020/12/11 07:11:56;;;;;;;56.30;18.93;;;1.70;93.80;;;;;;5010528;28;20042;-76
2020/12/11 07:14:26;;;;;;;57.70;18.10;;;1.70;93.70;;;;;;5009213;28;20088;-76
2020/12/11 07:16:53;;;;;;;60.10;19.45;;;1.70;93.70;;;;;;5010915;28;20046;-77
2020/12/11 07:19:18;;;;;;;57.93;19.57;;;1.70;93.70;;;;;;5010152;28;20113;-76
2020/12/11 07:21:46;;;;;;;63.03;20.83;;;1.70;93.70;;;;;;5011029;28;20590;-77
2020/12/11 07:24:13;;;;;;;57.50;19.43;;;1.80;94.10;;;;;;5009601;28;20129;-76
2020/12/11 07:26:39;;;;;;;64.53;21.03;;;1.70;93.80;;;;;;5011123;28;20037;-76
2020/12/11 07:29:06;;;;;;;61.93;20.07;;;1.80;93.70;;;;;;5007998;28;20042;-76
2020/12/11 07:31:43;;;;;;;60.77;19.07;;;1.70;93.70;;;;;;5003800;28;20046;-76
2020/12/11 07:34:19;;;;;;;65.97;21.57;;;1.80;93.80;;;;;;5018927;28;20513;-76
2020/12/11 07:36:56;;;;;;;65.47;20.57;;;1.80;93.90;;;;;;5011670;28;20084;-65
2020/12/11 07:39:30;;;;;;;64.73;21.10;;;1.80;93.80;;;;;;5010045;28;20503;-65
2020/12/11 07:41:59;;;;;;;68.50;21.77;;;1.80;93.80;;;;;;5010106;28;20046;-65
2020/12/11 07:44:26;;;;;;;65.50;20.87;;;1.80;93.80;;;;;;5010897;28;20411;-65
2020/12/11 07:47:05;;;;;;;67.40;20.47;;;1.80;93.80;;;;;;5022432;28;20394;-65
2020/12/11 07:49:42;;;;;;;69.93;21.03;;;1.80;93.80;;;;;;5014556;28;20053;-65
2020/12/11 07:52:10;;;;;;;62.80;20.17;;;1.80;93.80;;;;;;5017075;28;20038;-65
2020/12/11 07:54:39;;;;;;;71.67;22.20;;;1.80;93.70;;;;;;5050160;28;20092;-65
2020/12/11 07:57:12;;;;;;;70.23;20.67;;;1.80;93.70;;;;;;5022263;28;20049;-65
2020/12/11 07:59:39;;;;;;;57.43;18.23;;;1.80;93.60;;;;;;5014699;28;20038;-64
2020/12/11 08:02:05;;;;;;;77.63;22.80;;;1.80;93.70;;;;;;5004687;28;20034;-65
2020/12/11 08:04:35;;;;;;;72.13;22.03;;;1.80;93.80;;;;;;5019564;28;20037;-65
2020/12/11 08:07:02;;;;;;;66.75;19.23;;;1.80;93.70;;;;;;5010317;28;20553;-65
2020/12/11 08:09:32;;;;;;;51.17;14.93;;;1.80;93.70;;;;;;5020343;28;20042;-64
2020/12/11 08:12:20;;;;;;;82.55;25.02;;;1.80;93.80;;;;;;5061690;28;20045;-64
2020/12/11 08:14:46;;;;;;;79.93;22.50;;;1.80;93.80;;;;;;5028388;28;20319;-64
2020/12/11 08:17:14;;;;;;;71.70;20.73;;;1.80;93.90;;;;;;5017518;28;20049;-64
2020/12/11 08:19:41;;;;;;;83.57;24.07;;;1.80;93.80;;;;;;5029138;28;20038;-65
2020/12/11 08:22:12;;;;;;;71.17;20.83;;;1.80;93.80;;;;;;5027975;28;20410;-65
2020/12/11 08:24:38;;;;;;;88.32;23.05;;;1.90;93.90;;;;;;5030809;28;20040;-64
2020/12/11 08:27:04;;;;;;;76.37;22.63;;;1.90;93.90;;;;;;5032606;28;20571;-64
2020/12/11 08:29:29;;;;;;;86.60;23.77;;;1.90;93.90;;;;;;5034320;28;20041;-64
2020/12/11 08:31:55;;;;;;;82.77;22.97;;;1.90;93.80;;;;;;5032467;28;20053;-64
2020/12/11 08:34:27;;;;;;;76.20;21.73;;;1.90;93.70;;;;;;5015868;28;20104;-64
2020/12/11 08:37:01;;;;;;;85.67;25.97;;;1.90;93.70;;;;;;5032519;28;20133;-64
2020/12/11 08:39:28;;;;;;;85.70;23.80;;;1.90;93.70;;;;;;5033974;28;20064;-64
2020/12/11 08:49:49;;;;;;;88.60;24.13;;;1.90;93.70;;;;;;5033492;28;20041;-64
2020/12/11 08:52:14;;;;;;;77.70;22.47;;;1.90;93.80;;;;;;5033353;28;20038;-65
2020/12/11 08:54:40;;;;;;;85.93;25.67;;;1.90;93.90;;;;;;5033365;28;20030;-64
2020/12/11 08:57:06;;;;;;;91.30;26.07;;;1.90;93.70;;;;;;5033266;28;20106;-64
2020/12/11 08:59:32;;;;;;;84.13;26.10;;;1.90;93.70;;;;;;5033294;28;20046;-65
2020/12/11 09:02:01;;;;;;;89.50;25.00;;;1.90;93.80;;;;;;5033185;28;20137;-64
2020/12/11 09:04:27;;;;;;;81.93;22.00;;;2.00;93.80;;;;;;5033347;28;20037;-70
2020/12/11 09:06:53;;;;;;;91.33;26.00;;;1.90;93.70;;;;;;5032095;28;20030;-65
2020/12/11 09:09:19;;;;;;;94.07;25.10;;;2.00;93.80;;;;;;5033457;28;20049;-65
2020/12/11 09:11:45;;;;;;;83.33;23.20;;;1.90;93.80;;;;;;5032389;28;20104;-64
2020/12/11 09:14:10;;;;;;;86.07;23.53;;;2.00;93.80;;;;;;5033266;28;20069;-64
2020/12/11 09:16:36;;;;;;;80.33;22.90;;;1.90;93.70;;;;;;5015147;28;20052;-65
2020/12/11 09:19:02;;;;;;;82.93;23.50;;;1.90;93.70;;;;;;5033211;28;20029;-64
2020/12/11 09:21:28;;;;;;;77.57;24.93;;;1.90;93.70;;;;;;5033313;28;20537;-65
2020/12/11 09:23:54;;;;;;;76.10;24.63;;;1.90;93.70;;;;;;5030969;28;20171;-65
2020/12/11 09:26:20;;;;;;;79.00;22.73;;;1.90;93.80;;;;;;5033135;28;20124;-65
2020/12/11 09:28:51;;;;;;;67.83;20.27;;;2.00;93.80;;;;;;5032780;28;20035;-65
2020/12/11 09:31:22;;;;;;;64.50;19.30;;;2.00;93.90;;;;;;5031825;28;20498;-64
2020/12/11 09:33:48;;;;;;;;;;;2.00;93.70;;;;;;5031657;28;20038;-64
2020/12/11 09:36:14;;;;;;;78.10;22.70;;;2.00;93.70;;;;;;5032046;28;19917;-65
2020/12/11 09:38:40;;;;;;;85.03;25.10;;;2.00;93.70;;;;;;5031346;28;20163;-64
2020/12/11 09:41:07;;;;;;;73.30;24.60;;;2.00;93.80;;;;;;5032578;28;20073;-64
2020/12/11 09:49:18;;;;;;;82.30;22.63;;;2.00;93.80;;;;;;5032818;28;20040;-64
2020/12/11 09:54:27;;;;;;;92.17;26.80;;;2.10;93.80;;;;;;5032586;28;20068;-64
2020/12/11 09:56:55;;;;;;;83.90;23.47;;;2.10;93.70;;;;;;5031161;28;20045;-64
2020/12/11 10:04:22;;;;;;;79.13;22.87;;;2.20;93.70;;;;;;5032519;28;20380;-64
2020/12/11 10:06:48;;;;;;;93.43;29.87;;;2.20;93.70;;;;;;5031786;28;20087;-65
2020/12/11 10:09:13;;;;;;;84.93;24.83;;;2.10;93.60;;;;;;5031081;28;20040;-64
2020/12/11 10:11:39;;;;;;;62.57;19.53;;;2.20;93.70;;;;;;5030721;28;20041;-64
2020/12/11 10:15:10;;;;;;;78.80;25.33;;;2.20;93.70;;;;;;5031534;28;20041;-64
2020/12/11 10:17:02;;;;;;;76.27;24.07;;;2.10;93.60;;;;;;5030986;28;20116;-64
2020/12/11 10:19:28;;;;;;;70.53;20.93;;;2.10;93.60;;;;;;5030953;28;20124;-64
2020/12/11 10:21:54;;;;;;;77.57;25.10;;;2.20;93.70;;;;;;5029820;28;20047;-65
2020/12/11 10:24:21;;;;;;;75.33;22.43;;;2.20;93.70;;;;;;5030862;28;20324;-64
2020/12/11 10:26:47;;;;;;;77.17;25.73;;;2.20;93.60;;;;;;5031932;28;20040;-64
2020/12/11 10:29:13;;;;;;;80.00;26.13;;;2.20;93.70;;;;;;5031618;28;20411;-64
2020/12/11 10:31:42;;;;;;;83.27;25.33;;;2.20;93.60;;;;;;5031542;28;20033;-64
2020/12/11 10:34:12;;;;;;;78.23;25.03;;;2.20;93.60;;;;;;5030194;28;20106;-64
2020/12/11 10:36:38;;;;;;;78.85;24.45;;;2.20;93.60;;;;;;5031819;28;20037;-64
2020/12/11 10:39:05;;;;;;;64.93;18.70;;;2.20;93.60;;;;;;5031767;28;20041;-64
2020/12/11 10:41:31;;;;;;;58.07;16.10;;;2.20;93.50;;;;;;5063239;28;20486;-64
2020/12/11 10:43:57;;;;;;;82.63;24.30;;;2.20;93.50;;;;;;5031479;28;20040;-64
2020/12/11 10:46:24;;;;;;;74.63;24.63;;;2.20;93.60;;;;;;5031179;28;20037;-65
2020/12/11 10:48:50;;;;;;;75.80;24.07;;;2.20;93.60;;;;;;5031683;28;20199;-64
2020/12/11 10:51:16;;;;;;;60.60;20.23;;;2.20;93.60;;;;;;5030071;28;20153;-65
2020/12/11 10:53:43;;;;;;;73.57;24.93;;;2.20;93.60;;;;;;5029803;28;20034;-64
2020/12/11 10:56:10;;;;;;;83.67;24.63;;;2.20;93.40;;;;;;5031377;28;20103;-64
2020/12/11 10:58:36;;;;;;;74.83;21.73;;;2.20;93.50;;;;;;5031271;28;20041;-64
2020/12/11 11:01:04;;;;;;;60.17;18.00;;;2.20;93.60;;;;;;5031474;28;20037;-64
2020/12/11 11:03:30;;;;;;;87.30;27.20;;;2.20;93.50;;;;;;5030457;28;20037;-65
2020/12/11 11:05:58;;;;;;;63.87;19.47;;;2.20;93.60;;;;;;5029902;28;20120;-64
2020/12/11 11:08:33;;;;;;;89.23;28.43;;;2.20;93.70;;;;;;5031360;28;20095;-64
2020/12/11 11:10:59;;;;;;;75.07;22.40;;;2.20;93.30;;;;;;5014655;28;20121;-64
2020/12/11 11:16:09;;;;;;;85.50;25.00;;;2.20;93.50;;;;;;5030673;28;20115;-64
2020/12/11 11:18:41;;;;;;;79.63;23.30;;;2.10;93.40;;;;;;5031340;28;20046;-64
2020/12/11 11:24:44;;;;;;;75.93;23.53;;;2.10;93.50;;;;;;5030616;28;20124;-64
2020/12/11 11:28:56;;;;;;;74.80;22.13;;;2.20;93.50;;;;;;5031049;28;20048;-64
2020/12/11 11:31:22;;;;;;;80.97;25.73;;;2.10;93.40;;;;;;5029342;28;20041;-64
2020/12/11 11:33:47;;;;;;;76.03;21.40;;;2.10;93.40;;;;;;5030564;28;20083;-64
2020/12/11 11:36:13;;;;;;;83.60;25.93;;;2.10;93.60;;;;;;5030874;28;20116;-64
2020/12/11 11:38:39;;;;;;;83.03;26.60;;;2.20;93.60;;;;;;5030503;28;20049;-64
2020/12/11 11:41:04;;;;;;;82.23;25.17;;;2.20;93.60;;;;;;5030941;28;20109;-66
2020/12/11 11:46:14;;;;;;;69.43;23.47;;;2.20;93.40;;;;;;5029381;28;20458;-64
2020/12/11 11:48:43;;;;;;;70.30;21.00;;;2.20;93.30;;;;;;5029196;28;20061;-64
2020/12/11 11:51:23;;;;;;;69.47;21.40;;;2.20;93.30;;;;;;5030830;28;20052;-64
2020/12/11 11:53:49;;;;;;;81.80;26.08;;;2.20;93.30;;;;;;5029943;28;20490;-64
2020/12/11 11:56:19;;;;;;;66.53;20.07;;;2.20;93.40;;;;;;5030536;28;20103;-64
2020/12/11 11:58:46;;;;;;;76.57;25.23;;;2.30;93.60;;;;;;5029116;28;20041;-64
2020/12/11 12:01:13;;;;;;;70.63;23.77;;;2.30;93.80;;;;;;5032386;28;20037;-64
2020/12/11 12:03:39;;;;;;;83.23;24.43;;;2.40;93.60;;;;;;5034248;28;20251;-64
2020/12/11 12:06:05;;;;;;;77.70;25.27;;;2.40;93.50;;;;;;5032943;28;20033;-64
2020/12/11 12:08:31;;;;;;;79.80;25.07;;;2.40;93.40;;;;;;5033299;28;20029;-64
2020/12/11 12:10:57;;;;;;;69.13;20.67;;;2.50;93.40;;;;;;5032881;28;20063;-65
2020/12/11 12:13:23;;;;;;;73.93;22.80;;;2.50;93.40;;;;;;5032708;28;20514;-64
2020/12/11 12:15:50;;;;;;;66.00;22.13;;;2.50;93.30;;;;;;5034416;28;20095;-64
2020/12/11 12:18:16;;;;;;;54.83;17.40;;;2.50;93.20;;;;;;5034185;28;20037;-65
2020/12/11 12:20:54;;;;;;;71.63;22.50;;;2.50;93.00;;;;;;5033166;28;20112;-64
2020/12/11 12:28:49;;;;;;;74.23;24.00;;;2.40;93.30;;;;;;5034032;28;20045;-64
2020/12/11 12:31:19;;;;;;;74.50;22.50;;;2.40;93.20;;;;;;5032620;28;20061;-64
2020/12/11 12:37:03;;;;;;;79.53;22.37;;;2.40;93.20;;;;;;5034074;28;20049;-64
2020/12/11 12:44:20;;;;;;;64.33;20.13;;;2.40;93.10;;;;;;5024822;28;20065;-65
2020/12/11 12:46:46;;;;;;;73.93;22.60;;;2.40;93.10;;;;;;5033787;28;20053;-64
2020/12/11 12:49:12;;;;;;;66.47;21.27;;;2.30;93.10;;;;;;5033642;28;20457;-64
2020/12/11 12:51:39;;;;;;;68.13;23.03;;;2.40;93.10;;;;;;5033362;28;20041;-64
2020/12/11 12:54:05;;;;;;;66.33;21.57;;;2.40;93.10;;;;;;5033788;28;20041;-64
2020/12/11 12:56:48;;;;;;;69.23;21.17;;;2.30;93.10;;;;;;5033053;28;20044;-64
2020/12/11 13:02:17;;;;;;;72.07;22.90;;;2.30;93.00;;;;;;5032830;28;20030;-64
2020/12/11 13:05:28;;;;;;;70.03;21.93;;;2.30;93.10;;;;;;5033271;28;20034;-64
2020/12/11 13:07:29;;;;;;;70.60;23.10;;;2.30;93.20;;;;;;5027962;28;20153;-65
2020/12/11 13:09:55;;;;;;;75.70;23.60;;;2.30;93.20;;;;;;5033526;28;20037;-65
2020/12/11 13:12:24;;;;;;;70.50;23.27;;;2.30;93.20;;;;;;5031810;28;20492;-65
2020/12/11 13:14:50;;;;;;;65.47;21.80;;;2.30;93.00;;;;;;5032841;28;20048;-65
2020/12/11 13:17:16;;;;;;;64.27;18.97;;;2.30;93.00;;;;;;5031831;28;20045;-65
2020/12/11 13:19:42;;;;;;;64.53;22.03;;;2.30;93.10;;;;;;5032902;28;20034;-65
2020/12/11 13:27:30;;;;;;;62.53;20.80;;;2.30;93.10;;;;;;5033165;28;20065;-65
2020/12/11 13:29:57;;;;;;;72.50;23.00;;;2.30;93.20;;;;;;5032717;28;20494;-65
2020/12/11 13:32:24;;;;;;;64.47;21.33;;;2.30;93.20;;;;;;5032319;28;20092;-65
2020/12/11 13:34:50;;;;;;;66.47;21.83;;;2.30;93.10;;;;;;5032779;28;20043;-65
2020/12/11 13:37:16;;;;;;;68.30;23.53;;;2.20;93.00;;;;;;5033334;28;20137;-65